TimeCST,TemperatureF,Dew PointF,Humidity,Sea Level PressureIn,VisibilityMPH,Wind Direction,Wind SpeedMPH,Gust SpeedMPH,PrecipitationIn,Events,Conditions,WindDirDegrees,DateUTC
12:52 AM,18.0,16.0,92,30.20,9.0,South,6.9,-,N/A,,Clear,190,2011-11-28 06:52:00
1:52 AM,12.9,12.0,96,30.20,8.0,SW,6.9,-,N/A,,Clear,230,2011-11-28 07:52:00
2:52 AM,16.0,14.0,92,30.19,9.0,SSW,6.9,-,N/A,,Clear,210,2011-11-28 08:52:00
3:52 AM,12.9,10.9,92,30.18,10.0,WSW,5.8,-,N/A,,Clear,240,2011-11-28 09:52:00
4:52 AM,16.0,12.9,88,30.17,9.0,SSW,5.8,-,N/A,,Clear,210,2011-11-28 10:52:00
5:52 AM,18.0,16.0,92,30.14,10.0,South,9.2,-,N/A,,Clear,190,2011-11-28 11:52:00
6:52 AM,14.0,12.0,92,30.15,10.0,South,8.1,-,N/A,,Clear,180,2011-11-28 12:52:00
7:52 AM,16.0,14.0,92,30.14,8.0,South,9.2,-,N/A,,Clear,180,2011-11-28 13:52:00
8:52 AM,21.9,19.9,92,30.14,9.0,South,12.7,-,N/A,,Unknown,180,2011-11-28 14:52:00
10:52 AM,33.1,24.1,70,30.14,10.0,South,13.8,-,N/A,,Unknown,190,2011-11-28 16:52:00
11:52 AM,36.0,24.1,62,30.11,10.0,South,15.0,-,N/A,,Unknown,190,2011-11-28 17:52:00
12:52 PM,39.0,24.1,55,30.10,10.0,South,13.8,-,N/A,,Unknown,190,2011-11-28 18:52:00
1:52 PM,42.1,23.0,47,30.09,10.0,SSW,13.8,-,N/A,,Unknown,210,2011-11-28 19:52:00
2:52 PM,45.0,21.9,40,30.08,10.0,SW,11.5,-,N/A,,Unknown,220,2011-11-28 20:52:00
3:52 PM,46.9,21.0,36,30.10,10.0,West,8.1,-,N/A,,Unknown,260,2011-11-28 21:52:00
4:52 PM,41.0,21.0,45,30.12,10.0,WNW,6.9,-,N/A,,Unknown,290,2011-11-28 22:52:00
5:52 PM,39.0,19.9,46,30.13,10.0,WNW,8.1,-,N/A,,Unknown,300,2011-11-28 23:52:00
6:52 PM,44.1,26.1,49,30.14,10.0,NNW,19.6,-,N/A,,Unknown,340,2011-11-29 00:52:00
7:52 PM,43.0,28.0,56,30.17,10.0,North,21.9,-,N/A,,Unknown,350,2011-11-29 01:52:00
8:52 PM,41.0,28.9,62,30.19,10.0,North,17.3,25.3,N/A,,Unknown,360,2011-11-29 02:52:00
9:52 PM,39.0,28.9,67,30.22,10.0,North,18.4,-,N/A,,Unknown,350,2011-11-29 03:52:00
10:52 PM,37.0,28.9,73,30.23,10.0,North,20.7,28.8,N/A,,Unknown,360,2011-11-29 04:52:00
11:52 PM,35.1,28.9,78,30.25,10.0,North,20.7,-,N/A,,Unknown,360,2011-11-29 05:52:00